sensor_id;sensor_type;location;lat;lon;timestamp;temperature;humidity
46416;DHT22;32620;51.704;7.822;2023-06-10T00:00:54;18.00;99.90
46416;DHT22;32620;51.704;7.822;2023-06-10T00:03:21;18.00;99.90
46416;DHT22;32620;51.704;7.822;2023-06-10T00:05:49;18.00;99.90
46416;DHT22;32620;51.704;7.822;2023-06-10T00:08:14;17.90;99.90
46416;DHT22;32620;51.704;7.822;2023-06-10T00:10:44;18.00;99.90
46416;DHT22;32620;51.704;7.822;2023-06-10T00:13:10;18.00;99.90
46416;DHT22;32620;51.704;7.822;2023-06-10T00:15:37;18.00;99.90
46416;DHT22;32620;51.704;7.822;2023-06-10T00:18:03;18.00;99.90
46416;DHT22;32620;51.704;7.822;2023-06-10T00:20:29;18.00;99.90
46416;DHT22;32620;51.704;7.822;2023-06-10T00:22:56;18.00;99.90
46416;DHT22;32620;51.704;7.822;2023-06-10T00:25:22;18.00;99.90
46416;DHT22;32620;51.704;7.822;2023-06-10T00:27:48;18.10;99.90
46416;DHT22;32620;51.704;7.822;2023-06-10T00:30:13;18.10;99.90
46416;DHT22;32620;51.704;7.822;2023-06-10T00:32:39;18.00;99.90
46416;DHT22;32620;51.704;7.822;2023-06-10T00:35:06;17.90;99.90
46416;DHT22;32620;51.704;7.822;2023-06-10T00:37:33;17.90;99.90
46416;DHT22;32620;51.704;7.822;2023-06-10T00:40:00;17.90;99.90
46416;DHT22;32620;51.704;7.822;2023-06-10T00:42:25;17.80;99.90
46416;DHT22;32620;51.704;7.822;2023-06-10T00:44:51;17.80;99.90
46416;DHT22;32620;51.704;7.822;2023-06-10T00:47:17;17.80;99.90
46416;DHT22;32620;51.704;7.822;2023-06-10T00:49:43;17.70;98.50
46416;DHT22;32620;51.704;7.822;2023-06-10T00:52:09;17.80;35.70
46416;DHT22;32620;51.704;7.822;2023-06-10T00:54:37;17.70;72.20
46416;DHT22;32620;51.704;7.822;2023-06-10T00:57:03;17.70;16.40
46416;DHT22;32620;51.704;7.822;2023-06-10T00:59:29;17.70;9.50
46416;DHT22;32620;51.704;7.822;2023-06-10T01:01:56;17.60;15.70
46416;DHT22;32620;51.704;7.822;2023-06-10T01:04:22;17.60;84.50
46416;DHT22;32620;51.704;7.822;2023-06-10T01:07:14;17.50;99.90
46416;DHT22;32620;51.704;7.822;2023-06-10T01:10:04;17.40;99.90
46416;DHT22;32620;51.704;7.822;2023-06-10T01:12:52;17.30;99.90
46416;DHT22;32620;51.704;7.822;2023-06-10T01:15:20;17.30;99.90
46416;DHT22;32620;51.704;7.822;2023-06-10T01:18:05;17.30;99.90
46416;DHT22;32620;51.704;7.822;2023-06-10T01:20:34;17.30;99.90
46416;DHT22;32620;51.704;7.822;2023-06-10T01:23:02;17.20;99.90
46416;DHT22;32620;51.704;7.822;2023-06-10T01:25:29;17.20;99.90
46416;DHT22;32620;51.704;7.822;2023-06-10T01:28:13;17.20;99.90
46416;DHT22;32620;51.704;7.822;2023-06-10T01:30:48;17.10;99.90
46416;DHT22;32620;51.704;7.822;2023-06-10T01:33:18;17.10;99.90
46416;DHT22;32620;51.704;7.822;2023-06-10T01:35:47;17.10;99.90
46416;DHT22;32620;51.704;7.822;2023-06-10T01:38:14;16.90;99.90
46416;DHT22;32620;51.704;7.822;2023-06-10T01:40:41;16.90;99.90
46416;DHT22;32620;51.704;7.822;2023-06-10T01:43:07;16.80;99.90
46416;DHT22;32620;51.704;7.822;2023-06-10T01:45:33;16.80;99.90
46416;DHT22;32620;51.704;7.822;2023-06-10T01:47:58;16.80;99.90
46416;DHT22;32620;51.704;7.822;2023-06-10T01:50:24;16.80;99.90
46416;DHT22;32620;51.704;7.822;2023-06-10T01:52:49;16.80;74.40
46416;DHT22;32620;51.704;7.822;2023-06-10T01:55:15;16.80;16.50
46416;DHT22;32620;51.704;7.822;2023-06-10T01:57:40;16.80;1.00
46416;DHT22;32620;51.704;7.822;2023-06-10T02:00:06;16.80;1.00
46416;DHT22;32620;51.704;7.822;2023-06-10T02:02:33;16.70;22.60
46416;DHT22;32620;51.704;7.822;2023-06-10T02:04:58;16.70;12.10
46416;DHT22;32620;51.704;7.822;2023-06-10T02:07:24;16.70;59.90
46416;DHT22;32620;51.704;7.822;2023-06-10T02:09:49;16.60;8.40
46416;DHT22;32620;51.704;7.822;2023-06-10T02:12:15;16.60;1.00
46416;DHT22;32620;51.704;7.822;2023-06-10T02:14:40;16.60;1.30
46416;DHT22;32620;51.704;7.822;2023-06-10T02:17:06;16.60;1.00
46416;DHT22;32620;51.704;7.822;2023-06-10T02:19:32;16.60;1.00
46416;DHT22;32620;51.704;7.822;2023-06-10T02:21:57;16.70;1.00
46416;DHT22;32620;51.704;7.822;2023-06-10T02:24:23;16.70;1.00
46416;DHT22;32620;51.704;7.822;2023-06-10T02:26:48;16.60;1.00
46416;DHT22;32620;51.704;7.822;2023-06-10T02:29:14;16.60;1.00
46416;DHT22;32620;51.704;7.822;2023-06-10T02:31:39;16.50;1.00
46416;DHT22;32620;51.704;7.822;2023-06-10T02:34:06;16.50;1.00
46416;DHT22;32620;51.704;7.822;2023-06-10T02:36:31;16.40;99.90
46416;DHT22;32620;51.704;7.822;2023-06-10T02:38:57;16.30;87.40
46416;DHT22;32620;51.704;7.822;2023-06-10T02:41:22;16.30;99.90
46416;DHT22;32620;51.704;7.822;2023-06-10T02:43:50;16.20;99.90
46416;DHT22;32620;51.704;7.822;2023-06-10T02:46:15;16.10;99.90
46416;DHT22;32620;51.704;7.822;2023-06-10T02:48:42;16.10;99.90
46416;DHT22;32620;51.704;7.822;2023-06-10T02:51:09;16.10;99.90
46416;DHT22;32620;51.704;7.822;2023-06-10T02:53:35;16.10;99.90
46416;DHT22;32620;51.704;7.822;2023-06-10T02:56:00;16.10;99.90
46416;DHT22;32620;51.704;7.822;2023-06-10T02:58:27;16.10;99.90
46416;DHT22;32620;51.704;7.822;2023-06-10T03:00:52;16.00;99.90
46416;DHT22;32620;51.704;7.822;2023-06-10T03:03:18;16.00;99.90
46416;DHT22;32620;51.704;7.822;2023-06-10T03:05:44;16.00;99.90
46416;DHT22;32620;51.704;7.822;2023-06-10T03:08:09;15.90;99.90
46416;DHT22;32620;51.704;7.822;2023-06-10T03:10:35;15.90;99.90
46416;DHT22;32620;51.704;7.822;2023-06-10T03:13:00;15.80;99.90
46416;DHT22;32620;51.704;7.822;2023-06-10T03:15:26;15.80;99.90
46416;DHT22;32620;51.704;7.822;2023-06-10T03:17:54;15.80;99.90
46416;DHT22;32620;51.704;7.822;2023-06-10T03:20:20;15.80;99.90
46416;DHT22;32620;51.704;7.822;2023-06-10T03:22:47;15.80;99.90
46416;DHT22;32620;51.704;7.822;2023-06-10T03:25:12;15.80;1.00
46416;DHT22;32620;51.704;7.822;2023-06-10T03:27:40;15.80;1.00
46416;DHT22;32620;51.704;7.822;2023-06-10T03:30:06;15.80;99.90
46416;DHT22;32620;51.704;7.822;2023-06-10T03:32:32;15.90;99.90
46416;DHT22;32620;51.704;7.822;2023-06-10T03:34:57;15.90;99.90
46416;DHT22;32620;51.704;7.822;2023-06-10T03:37:24;15.90;99.90
46416;DHT22;32620;51.704;7.822;2023-06-10T03:39:50;16.00;99.90
46416;DHT22;32620;51.704;7.822;2023-06-10T03:42:16;16.00;99.90
46416;DHT22;32620;51.704;7.822;2023-06-10T03:44:41;15.90;99.90
46416;DHT22;32620;51.704;7.822;2023-06-10T03:47:07;15.90;99.90
46416;DHT22;32620;51.704;7.822;2023-06-10T03:49:32;15.90;99.90
46416;DHT22;32620;51.704;7.822;2023-06-10T03:51:58;16.00;99.90
46416;DHT22;32620;51.704;7.822;2023-06-10T03:54:24;16.10;99.90
46416;DHT22;32620;51.704;7.822;2023-06-10T03:56:50;16.10;99.90
46416;DHT22;32620;51.704;7.822;2023-06-10T03:59:16;16.20;99.90
46416;DHT22;32620;51.704;7.822;2023-06-10T04:01:42;16.20;99.90
46416;DHT22;32620;51.704;7.822;2023-06-10T04:04:09;16.30;99.90
46416;DHT22;32620;51.704;7.822;2023-06-10T04:06:34;16.40;37.30
46416;DHT22;32620;51.704;7.822;2023-06-10T04:09:00;16.50;1.00
46416;DHT22;32620;51.704;7.822;2023-06-10T04:11:25;16.60;1.00
46416;DHT22;32620;51.704;7.822;2023-06-10T04:13:51;16.70;99.90
46416;DHT22;32620;51.704;7.822;2023-06-10T04:16:17;16.80;99.90
46416;DHT22;32620;51.704;7.822;2023-06-10T04:18:42;16.80;99.90
46416;DHT22;32620;51.704;7.822;2023-06-10T04:21:08;16.90;99.90
46416;DHT22;32620;51.704;7.822;2023-06-10T04:23:35;17.00;14.80
46416;DHT22;32620;51.704;7.822;2023-06-10T04:26:02;17.10;99.90
46416;DHT22;32620;51.704;7.822;2023-06-10T04:28:27;17.20;99.90
46416;DHT22;32620;51.704;7.822;2023-06-10T04:30:53;17.40;99.90
46416;DHT22;32620;51.704;7.822;2023-06-10T04:33:19;17.60;1.00
46416;DHT22;32620;51.704;7.822;2023-06-10T04:35:44;17.90;1.00
46416;DHT22;32620;51.704;7.822;2023-06-10T04:38:11;18.50;1.00
46416;DHT22;32620;51.704;7.822;2023-06-10T04:40:37;19.60;52.60
46416;DHT22;32620;51.704;7.822;2023-06-10T04:43:03;20.70;99.90
46416;DHT22;32620;51.704;7.822;2023-06-10T04:45:28;21.50;1.00
46416;DHT22;32620;51.704;7.822;2023-06-10T04:47:55;21.90;99.90
46416;DHT22;32620;51.704;7.822;2023-06-10T04:50:21;22.30;99.90
46416;DHT22;32620;51.704;7.822;2023-06-10T04:52:47;23.20;99.90
46416;DHT22;32620;51.704;7.822;2023-06-10T04:55:12;23.40;1.00
46416;DHT22;32620;51.704;7.822;2023-06-10T04:57:38;23.80;1.00
46416;DHT22;32620;51.704;7.822;2023-06-10T05:00:04;24.20;1.00
46416;DHT22;32620;51.704;7.822;2023-06-10T05:02:31;24.20;1.00
46416;DHT22;32620;51.704;7.822;2023-06-10T05:04:56;24.90;99.90
46416;DHT22;32620;51.704;7.822;2023-06-10T05:07:23;25.00;99.90
46416;DHT22;32620;51.704;7.822;2023-06-10T05:09:49;25.10;1.00
46416;DHT22;32620;51.704;7.822;2023-06-10T05:12:14;25.00;1.00
46416;DHT22;32620;51.704;7.822;2023-06-10T05:14:40;25.00;1.00
46416;DHT22;32620;51.704;7.822;2023-06-10T05:17:05;25.30;1.00
46416;DHT22;32620;51.704;7.822;2023-06-10T05:19:31;25.20;1.00
46416;DHT22;32620;51.704;7.822;2023-06-10T05:21:57;25.20;1.00
46416;DHT22;32620;51.704;7.822;2023-06-10T05:24:23;25.20;1.00
46416;DHT22;32620;51.704;7.822;2023-06-10T05:26:49;25.60;1.00
46416;DHT22;32620;51.704;7.822;2023-06-10T05:29:14;25.80;1.00
46416;DHT22;32620;51.704;7.822;2023-06-10T05:31:41;26.40;1.00
46416;DHT22;32620;51.704;7.822;2023-06-10T05:34:06;26.40;99.90
46416;DHT22;32620;51.704;7.822;2023-06-10T05:36:32;26.80;99.90
46416;DHT22;32620;51.704;7.822;2023-06-10T05:38:58;27.00;60.50
46416;DHT22;32620;51.704;7.822;2023-06-10T05:41:23;26.90;99.90
46416;DHT22;32620;51.704;7.822;2023-06-10T05:43:49;27.40;99.90
46416;DHT22;32620;51.704;7.822;2023-06-10T05:46:14;27.80;1.00
46416;DHT22;32620;51.704;7.822;2023-06-10T05:48:40;27.80;99.90
46416;DHT22;32620;51.704;7.822;2023-06-10T05:51:05;27.50;99.90
46416;DHT22;32620;51.704;7.822;2023-06-10T05:53:32;27.50;99.90
46416;DHT22;32620;51.704;7.822;2023-06-10T05:55:57;28.40;1.00
46416;DHT22;32620;51.704;7.822;2023-06-10T05:58:24;27.70;1.00
46416;DHT22;32620;51.704;7.822;2023-06-10T06:00:50;27.50;1.00
46416;DHT22;32620;51.704;7.822;2023-06-10T06:03:15;27.10;1.00
46416;DHT22;32620;51.704;7.822;2023-06-10T06:05:41;27.40;44.20
46416;DHT22;32620;51.704;7.822;2023-06-10T06:08:07;28.20;1.00
46416;DHT22;32620;51.704;7.822;2023-06-10T06:10:34;28.20;99.90
46416;DHT22;32620;51.704;7.822;2023-06-10T06:13:00;28.60;99.90
46416;DHT22;32620;51.704;7.822;2023-06-10T06:15:26;29.00;99.90
46416;DHT22;32620;51.704;7.822;2023-06-10T06:17:51;28.80;99.90
46416;DHT22;32620;51.704;7.822;2023-06-10T06:20:19;29.40;99.90
46416;DHT22;32620;51.704;7.822;2023-06-10T06:22:45;29.90;99.90
46416;DHT22;32620;51.704;7.822;2023-06-10T06:25:10;30.50;99.90
46416;DHT22;32620;51.704;7.822;2023-06-10T06:27:36;30.20;99.90
46416;DHT22;32620;51.704;7.822;2023-06-10T06:30:02;30.00;99.90
46416;DHT22;32620;51.704;7.822;2023-06-10T06:32:27;30.00;1.00
46416;DHT22;32620;51.704;7.822;2023-06-10T06:34:53;29.50;99.90
46416;DHT22;32620;51.704;7.822;2023-06-10T06:37:22;29.90;99.90
46416;DHT22;32620;51.704;7.822;2023-06-10T06:39:48;30.50;99.90
46416;DHT22;32620;51.704;7.822;2023-06-10T06:42:14;31.30;99.90
46416;DHT22;32620;51.704;7.822;2023-06-10T06:44:39;31.50;87.50
46416;DHT22;32620;51.704;7.822;2023-06-10T06:47:05;31.90;1.00
46416;DHT22;32620;51.704;7.822;2023-06-10T06:49:30;31.60;99.90
46416;DHT22;32620;51.704;7.822;2023-06-10T06:51:56;31.30;99.90
46416;DHT22;32620;51.704;7.822;2023-06-10T06:54:21;30.80;99.90
46416;DHT22;32620;51.704;7.822;2023-06-10T06:56:47;31.30;99.90
46416;DHT22;32620;51.704;7.822;2023-06-10T06:59:12;31.50;1.00
46416;DHT22;32620;51.704;7.822;2023-06-10T07:01:39;31.20;99.90
46416;DHT22;32620;51.704;7.822;2023-06-10T07:04:04;31.60;99.90
46416;DHT22;32620;51.704;7.822;2023-06-10T07:06:30;31.00;99.90
46416;DHT22;32620;51.704;7.822;2023-06-10T07:08:56;31.70;99.90
46416;DHT22;32620;51.704;7.822;2023-06-10T07:11:21;32.00;99.90
46416;DHT22;32620;51.704;7.822;2023-06-10T07:13:47;32.00;99.90
46416;DHT22;32620;51.704;7.822;2023-06-10T07:16:12;32.20;99.90
46416;DHT22;32620;51.704;7.822;2023-06-10T07:18:38;31.60;99.90
46416;DHT22;32620;51.704;7.822;2023-06-10T07:21:04;32.40;99.90
46416;DHT22;32620;51.704;7.822;2023-06-10T07:23:29;32.40;1.00
46416;DHT22;32620;51.704;7.822;2023-06-10T07:25:55;31.60;99.90
46416;DHT22;32620;51.704;7.822;2023-06-10T07:28:21;31.40;1.00
46416;DHT22;32620;51.704;7.822;2023-06-10T07:30:46;31.60;1.00
46416;DHT22;32620;51.704;7.822;2023-06-10T07:33:12;31.70;99.90
46416;DHT22;32620;51.704;7.822;2023-06-10T07:35:37;31.90;99.90
46416;DHT22;32620;51.704;7.822;2023-06-10T07:38:03;32.50;99.90
46416;DHT22;32620;51.704;7.822;2023-06-10T07:40:28;33.40;99.90
46416;DHT22;32620;51.704;7.822;2023-06-10T07:42:55;33.00;1.00
46416;DHT22;32620;51.704;7.822;2023-06-10T07:45:21;33.30;1.00
46416;DHT22;32620;51.704;7.822;2023-06-10T07:47:46;33.10;80.70
46416;DHT22;32620;51.704;7.822;2023-06-10T07:50:12;33.70;99.90
46416;DHT22;32620;51.704;7.822;2023-06-10T07:52:37;33.80;1.00
46416;DHT22;32620;51.704;7.822;2023-06-10T07:55:04;33.60;99.90
46416;DHT22;32620;51.704;7.822;2023-06-10T07:57:30;34.30;99.90
46416;DHT22;32620;51.704;7.822;2023-06-10T07:59:57;34.40;1.00
46416;DHT22;32620;51.704;7.822;2023-06-10T08:02:25;34.80;1.00
46416;DHT22;32620;51.704;7.822;2023-06-10T08:04:51;34.30;99.90
46416;DHT22;32620;51.704;7.822;2023-06-10T08:07:16;34.50;99.90
46416;DHT22;32620;51.704;7.822;2023-06-10T08:09:43;34.90;1.00
46416;DHT22;32620;51.704;7.822;2023-06-10T08:12:09;34.20;99.90
46416;DHT22;32620;51.704;7.822;2023-06-10T08:14:34;33.40;1.00
46416;DHT22;32620;51.704;7.822;2023-06-10T08:17:00;34.00;99.90
46416;DHT22;32620;51.704;7.822;2023-06-10T08:19:25;34.00;99.90
46416;DHT22;32620;51.704;7.822;2023-06-10T08:21:51;33.60;99.90
46416;DHT22;32620;51.704;7.822;2023-06-10T08:24:16;32.60;99.90
46416;DHT22;32620;51.704;7.822;2023-06-10T08:26:43;32.90;99.90
46416;DHT22;32620;51.704;7.822;2023-06-10T08:29:11;33.40;99.90
46416;DHT22;32620;51.704;7.822;2023-06-10T08:31:36;32.60;99.90
46416;DHT22;32620;51.704;7.822;2023-06-10T08:34:02;33.00;95.90
46416;DHT22;32620;51.704;7.822;2023-06-10T08:36:27;33.30;99.90
46416;DHT22;32620;51.704;7.822;2023-06-10T08:38:53;33.70;1.00
46416;DHT22;32620;51.704;7.822;2023-06-10T08:41:19;33.80;1.00
46416;DHT22;32620;51.704;7.822;2023-06-10T08:43:53;33.30;1.00
46416;DHT22;32620;51.704;7.822;2023-06-10T08:46:22;33.90;1.00
46416;DHT22;32620;51.704;7.822;2023-06-10T08:48:49;32.60;99.90
46416;DHT22;32620;51.704;7.822;2023-06-10T08:51:17;33.80;76.20
46416;DHT22;32620;51.704;7.822;2023-06-10T08:53:50;33.70;1.00
46416;DHT22;32620;51.704;7.822;2023-06-10T08:56:18;33.20;99.90
46416;DHT22;32620;51.704;7.822;2023-06-10T08:58:44;34.00;7.30
46416;DHT22;32620;51.704;7.822;2023-06-10T09:01:11;34.50;99.90
46416;DHT22;32620;51.704;7.822;2023-06-10T09:03:37;34.50;99.90
46416;DHT22;32620;51.704;7.822;2023-06-10T09:06:05;35.00;1.00
46416;DHT22;32620;51.704;7.822;2023-06-10T09:08:31;34.60;91.10
46416;DHT22;32620;51.704;7.822;2023-06-10T09:10:57;34.30;17.10
46416;DHT22;32620;51.704;7.822;2023-06-10T09:13:23;34.70;1.00
46416;DHT22;32620;51.704;7.822;2023-06-10T09:15:48;34.60;99.90
46416;DHT22;32620;51.704;7.822;2023-06-10T09:18:14;35.30;1.00
46416;DHT22;32620;51.704;7.822;2023-06-10T09:20:41;35.30;1.00
46416;DHT22;32620;51.704;7.822;2023-06-10T09:23:07;35.20;99.90
46416;DHT22;32620;51.704;7.822;2023-06-10T09:25:36;35.30;99.90
46416;DHT22;32620;51.704;7.822;2023-06-10T09:28:03;34.50;99.90
46416;DHT22;32620;51.704;7.822;2023-06-10T09:30:31;34.50;1.00
46416;DHT22;32620;51.704;7.822;2023-06-10T09:33:01;34.50;99.90
46416;DHT22;32620;51.704;7.822;2023-06-10T09:35:28;35.10;99.90
46416;DHT22;32620;51.704;7.822;2023-06-10T09:37:57;34.60;99.90
46416;DHT22;32620;51.704;7.822;2023-06-10T09:40:23;34.70;1.00
46416;DHT22;32620;51.704;7.822;2023-06-10T09:42:58;35.10;1.00
46416;DHT22;32620;51.704;7.822;2023-06-10T09:45:29;34.60;59.70
46416;DHT22;32620;51.704;7.822;2023-06-10T09:47:55;35.40;99.90
46416;DHT22;32620;51.704;7.822;2023-06-10T09:50:21;34.50;42.90
46416;DHT22;32620;51.704;7.822;2023-06-10T09:52:47;33.90;99.90
46416;DHT22;32620;51.704;7.822;2023-06-10T09:55:13;34.30;99.90
46416;DHT22;32620;51.704;7.822;2023-06-10T09:57:39;34.90;99.90
46416;DHT22;32620;51.704;7.822;2023-06-10T10:00:08;33.90;99.90
46416;DHT22;32620;51.704;7.822;2023-06-10T10:02:51;33.60;1.00
46416;DHT22;32620;51.704;7.822;2023-06-10T10:05:20;34.40;1.00
46416;DHT22;32620;51.704;7.822;2023-06-10T10:07:47;34.80;1.00
46416;DHT22;32620;51.704;7.822;2023-06-10T10:10:14;34.00;99.90
46416;DHT22;32620;51.704;7.822;2023-06-10T10:12:41;34.40;99.90
46416;DHT22;32620;51.704;7.822;2023-06-10T10:15:08;34.00;99.90
46416;DHT22;32620;51.704;7.822;2023-06-10T10:17:46;33.60;99.90
46416;DHT22;32620;51.704;7.822;2023-06-10T10:20:14;34.10;1.00
46416;DHT22;32620;51.704;7.822;2023-06-10T10:22:43;33.90;1.00
46416;DHT22;32620;51.704;7.822;2023-06-10T10:25:12;33.40;99.90
46416;DHT22;32620;51.704;7.822;2023-06-10T10:27:43;34.30;99.90
46416;DHT22;32620;51.704;7.822;2023-06-10T10:30:11;34.30;99.90
46416;DHT22;32620;51.704;7.822;2023-06-10T10:32:43;34.80;99.90
46416;DHT22;32620;51.704;7.822;2023-06-10T10:35:16;34.00;89.50
46416;DHT22;32620;51.704;7.822;2023-06-10T10:37:43;34.30;99.90
46416;DHT22;32620;51.704;7.822;2023-06-10T10:40:10;34.10;1.00
46416;DHT22;32620;51.704;7.822;2023-06-10T10:42:37;34.70;1.00
46416;DHT22;32620;51.704;7.822;2023-06-10T10:45:04;33.80;99.90
46416;DHT22;32620;51.704;7.822;2023-06-10T10:47:31;33.50;99.90
46416;DHT22;32620;51.704;7.822;2023-06-10T10:49:58;33.60;99.90
46416;DHT22;32620;51.704;7.822;2023-06-10T10:52:25;33.30;99.90
46416;DHT22;32620;51.704;7.822;2023-06-10T10:54:53;32.80;99.90
46416;DHT22;32620;51.704;7.822;2023-06-10T10:57:21;32.30;1.00
46416;DHT22;32620;51.704;7.822;2023-06-10T10:59:51;32.20;80.80
46416;DHT22;32620;51.704;7.822;2023-06-10T11:02:19;32.00;99.90
46416;DHT22;32620;51.704;7.822;2023-06-10T11:04:57;31.70;9.20
46416;DHT22;32620;51.704;7.822;2023-06-10T11:07:25;31.80;99.90
46416;DHT22;32620;51.704;7.822;2023-06-10T11:10:11;31.70;1.00
46416;DHT22;32620;51.704;7.822;2023-06-10T11:15:23;31.50;1.00
46416;DHT22;32620;51.704;7.822;2023-06-10T11:18:10;30.50;99.90
46416;DHT22;32620;51.704;7.822;2023-06-10T11:21:00;31.00;99.90
46416;DHT22;32620;51.704;7.822;2023-06-10T11:26:19;31.00;99.90
46416;DHT22;32620;51.704;7.822;2023-06-10T11:31:32;30.20;99.90
46416;DHT22;32620;51.704;7.822;2023-06-10T11:34:01;31.00;99.90
46416;DHT22;32620;51.704;7.822;2023-06-10T11:36:29;30.80;1.00
46416;DHT22;32620;51.704;7.822;2023-06-10T11:38:58;31.30;1.00
46416;DHT22;32620;51.704;7.822;2023-06-10T11:41:24;31.30;1.00
46416;DHT22;32620;51.704;7.822;2023-06-10T11:43:51;31.40;1.00
46416;DHT22;32620;51.704;7.822;2023-06-10T11:46:17;31.50;1.00
46416;DHT22;32620;51.704;7.822;2023-06-10T11:48:58;31.40;1.00
46416;DHT22;32620;51.704;7.822;2023-06-10T11:51:27;31.20;20.80
46416;DHT22;32620;51.704;7.822;2023-06-10T11:53:53;31.30;1.00
46416;DHT22;32620;51.704;7.822;2023-06-10T11:56:27;31.50;1.00
46416;DHT22;32620;51.704;7.822;2023-06-10T11:58:55;31.40;68.10
46416;DHT22;32620;51.704;7.822;2023-06-10T12:01:23;31.30;99.90
46416;DHT22;32620;51.704;7.822;2023-06-10T12:04:00;31.40;99.90
46416;DHT22;32620;51.704;7.822;2023-06-10T12:06:26;31.00;99.90
46416;DHT22;32620;51.704;7.822;2023-06-10T12:08:53;31.10;79.50
46416;DHT22;32620;51.704;7.822;2023-06-10T12:11:19;31.30;99.90
46416;DHT22;32620;51.704;7.822;2023-06-10T12:13:49;30.70;99.90
46416;DHT22;32620;51.704;7.822;2023-06-10T12:16:15;30.60;99.90
46416;DHT22;32620;51.704;7.822;2023-06-10T12:18:43;30.70;99.90
46416;DHT22;32620;51.704;7.822;2023-06-10T12:21:25;30.70;1.00
46416;DHT22;32620;51.704;7.822;2023-06-10T12:24:09;30.70;99.90
46416;DHT22;32620;51.704;7.822;2023-06-10T12:29:16;30.90;7.20
46416;DHT22;32620;51.704;7.822;2023-06-10T12:32:03;31.10;99.90
46416;DHT22;32620;51.704;7.822;2023-06-10T12:34:38;30.80;99.90
46416;DHT22;32620;51.704;7.822;2023-06-10T12:37:05;30.70;99.90
46416;DHT22;32620;51.704;7.822;2023-06-10T12:39:32;30.80;99.90
46416;DHT22;32620;51.704;7.822;2023-06-10T12:41:59;31.00;99.90
46416;DHT22;32620;51.704;7.822;2023-06-10T12:44:29;31.50;99.90
46416;DHT22;32620;51.704;7.822;2023-06-10T12:46:55;31.10;99.90
46416;DHT22;32620;51.704;7.822;2023-06-10T12:49:21;31.10;99.90
46416;DHT22;32620;51.704;7.822;2023-06-10T12:51:47;30.90;99.90
46416;DHT22;32620;51.704;7.822;2023-06-10T12:54:12;30.60;99.90
46416;DHT22;32620;51.704;7.822;2023-06-10T12:56:38;30.50;85.60
46416;DHT22;32620;51.704;7.822;2023-06-10T12:59:04;30.40;99.90
46416;DHT22;32620;51.704;7.822;2023-06-10T13:01:30;30.50;92.70
46416;DHT22;32620;51.704;7.822;2023-06-10T13:03:57;30.50;23.50
46416;DHT22;32620;51.704;7.822;2023-06-10T13:06:22;30.80;99.90
46416;DHT22;32620;51.704;7.822;2023-06-10T13:08:48;30.70;96.50
46416;DHT22;32620;51.704;7.822;2023-06-10T13:11:14;30.80;87.80
46416;DHT22;32620;51.704;7.822;2023-06-10T13:13:39;31.20;99.10
46416;DHT22;32620;51.704;7.822;2023-06-10T13:16:05;31.10;90.70
46416;DHT22;32620;51.704;7.822;2023-06-10T13:18:32;30.90;99.90
46416;DHT22;32620;51.704;7.822;2023-06-10T13:21:03;30.70;99.90
46416;DHT22;32620;51.704;7.822;2023-06-10T13:23:28;30.90;99.90
46416;DHT22;32620;51.704;7.822;2023-06-10T13:25:54;30.90;99.90
46416;DHT22;32620;51.704;7.822;2023-06-10T13:28:21;30.90;99.90
46416;DHT22;32620;51.704;7.822;2023-06-10T13:30:46;30.90;79.00
46416;DHT22;32620;51.704;7.822;2023-06-10T13:33:12;30.60;99.90
46416;DHT22;32620;51.704;7.822;2023-06-10T13:35:37;30.60;99.90
46416;DHT22;32620;51.704;7.822;2023-06-10T13:38:03;30.60;99.90
46416;DHT22;32620;51.704;7.822;2023-06-10T13:40:29;30.70;99.90
46416;DHT22;32620;51.704;7.822;2023-06-10T13:42:55;30.40;99.90
46416;DHT22;32620;51.704;7.822;2023-06-10T13:45:21;30.50;99.90
46416;DHT22;32620;51.704;7.822;2023-06-10T13:47:46;30.60;46.50
46416;DHT22;32620;51.704;7.822;2023-06-10T13:50:12;30.70;99.90
46416;DHT22;32620;51.704;7.822;2023-06-10T13:52:38;30.70;99.90
46416;DHT22;32620;51.704;7.822;2023-06-10T13:55:04;30.70;1.00
46416;DHT22;32620;51.704;7.822;2023-06-10T13:57:30;30.60;88.70
46416;DHT22;32620;51.704;7.822;2023-06-10T13:59:55;30.50;97.50
46416;DHT22;32620;51.704;7.822;2023-06-10T14:02:22;30.40;99.90
46416;DHT22;32620;51.704;7.822;2023-06-10T14:04:47;30.60;99.90
46416;DHT22;32620;51.704;7.822;2023-06-10T14:07:13;30.90;1.00
46416;DHT22;32620;51.704;7.822;2023-06-10T14:09:38;31.10;99.90
46416;DHT22;32620;51.704;7.822;2023-06-10T14:12:04;31.10;99.90
46416;DHT22;32620;51.704;7.822;2023-06-10T14:14:30;30.80;1.00
46416;DHT22;32620;51.704;7.822;2023-06-10T14:16:58;30.60;1.00
46416;DHT22;32620;51.704;7.822;2023-06-10T14:19:24;30.50;1.00
46416;DHT22;32620;51.704;7.822;2023-06-10T14:21:49;30.40;1.00
46416;DHT22;32620;51.704;7.822;2023-06-10T14:24:15;30.30;99.90
46416;DHT22;32620;51.704;7.822;2023-06-10T14:26:40;30.40;99.90
46416;DHT22;32620;51.704;7.822;2023-06-10T14:29:06;30.20;1.00
46416;DHT22;32620;51.704;7.822;2023-06-10T14:31:32;30.40;35.10
46416;DHT22;32620;51.704;7.822;2023-06-10T14:33:58;30.50;1.00
46416;DHT22;32620;51.704;7.822;2023-06-10T14:36:23;30.50;1.00
46416;DHT22;32620;51.704;7.822;2023-06-10T14:38:49;30.40;1.00
46416;DHT22;32620;51.704;7.822;2023-06-10T14:41:15;30.10;1.00
46416;DHT22;32620;51.704;7.822;2023-06-10T14:43:40;30.30;1.00
46416;DHT22;32620;51.704;7.822;2023-06-10T14:46:06;30.30;1.00
46416;DHT22;32620;51.704;7.822;2023-06-10T14:48:31;30.40;1.00
46416;DHT22;32620;51.704;7.822;2023-06-10T14:50:57;30.30;30.40
46416;DHT22;32620;51.704;7.822;2023-06-10T14:53:22;30.50;84.90
46416;DHT22;32620;51.704;7.822;2023-06-10T14:55:48;30.50;1.00
46416;DHT22;32620;51.704;7.822;2023-06-10T14:58:13;30.60;1.00
46416;DHT22;32620;51.704;7.822;2023-06-10T15:00:39;30.70;34.20
46416;DHT22;32620;51.704;7.822;2023-06-10T15:03:05;30.40;46.40
46416;DHT22;32620;51.704;7.822;2023-06-10T15:05:30;30.20;1.00
46416;DHT22;32620;51.704;7.822;2023-06-10T15:07:56;30.20;99.90
46416;DHT22;32620;51.704;7.822;2023-06-10T15:10:21;30.10;84.20
46416;DHT22;32620;51.704;7.822;2023-06-10T15:12:47;29.90;1.00
46416;DHT22;32620;51.704;7.822;2023-06-10T15:15:13;29.80;99.90
46416;DHT22;32620;51.704;7.822;2023-06-10T15:17:38;29.90;99.90
46416;DHT22;32620;51.704;7.822;2023-06-10T15:20:05;30.00;51.90
46416;DHT22;32620;51.704;7.822;2023-06-10T15:22:31;29.80;1.00
46416;DHT22;32620;51.704;7.822;2023-06-10T15:24:56;29.90;48.10
46416;DHT22;32620;51.704;7.822;2023-06-10T15:27:23;29.80;99.90
46416;DHT22;32620;51.704;7.822;2023-06-10T15:29:48;29.70;96.00
46416;DHT22;32620;51.704;7.822;2023-06-10T15:32:14;29.60;1.00
46416;DHT22;32620;51.704;7.822;2023-06-10T15:34:39;29.70;1.00
46416;DHT22;32620;51.704;7.822;2023-06-10T15:37:05;29.60;1.00
46416;DHT22;32620;51.704;7.822;2023-06-10T15:39:30;29.80;99.90
46416;DHT22;32620;51.704;7.822;2023-06-10T15:41:56;29.90;1.00
46416;DHT22;32620;51.704;7.822;2023-06-10T15:44:22;29.70;1.00